sensor_id;sensor_type;location;lat;lon;timestamp;P1;durP1;ratioP1;P2;durP2;ratioP2
4742;SDS011;24293;48.154;7.748;2023-06-04T00:00:13;11.70;;;6.07;;
4742;SDS011;24293;48.154;7.748;2023-06-04T00:02:40;12.70;;;7.20;;
4742;SDS011;24293;48.154;7.748;2023-06-04T00:05:07;12.00;;;6.30;;
4742;SDS011;24293;48.154;7.748;2023-06-04T00:07:33;12.10;;;6.60;;
4742;SDS011;24293;48.154;7.748;2023-06-04T00:10:00;12.40;;;6.13;;
4742;SDS011;24293;48.154;7.748;2023-06-04T00:12:26;12.93;;;7.07;;
4742;SDS011;24293;48.154;7.748;2023-06-04T00:14:53;13.43;;;6.60;;
4742;SDS011;24293;48.154;7.748;2023-06-04T00:17:21;13.77;;;5.57;;
4742;SDS011;24293;48.154;7.748;2023-06-04T00:19:47;13.63;;;6.47;;
4742;SDS011;24293;48.154;7.748;2023-06-04T00:22:13;10.00;;;5.47;;
4742;SDS011;24293;48.154;7.748;2023-06-04T00:24:40;12.23;;;6.30;;
4742;SDS011;24293;48.154;7.748;2023-06-04T00:27:07;10.20;;;5.70;;
4742;SDS011;24293;48.154;7.748;2023-06-04T00:29:33;10.20;;;5.90;;
4742;SDS011;24293;48.154;7.748;2023-06-04T00:32:00;10.07;;;5.53;;
4742;SDS011;24293;48.154;7.748;2023-06-04T00:34:28;11.07;;;6.00;;
4742;SDS011;24293;48.154;7.748;2023-06-04T00:36:54;9.37;;;5.73;;
4742;SDS011;24293;48.154;7.748;2023-06-04T00:39:20;12.00;;;6.83;;
4742;SDS011;24293;48.154;7.748;2023-06-04T00:41:47;13.30;;;6.33;;
4742;SDS011;24293;48.154;7.748;2023-06-04T00:44:13;9.40;;;6.20;;
4742;SDS011;24293;48.154;7.748;2023-06-04T00:46:40;11.73;;;5.60;;
4742;SDS011;24293;48.154;7.748;2023-06-04T00:49:10;12.40;;;6.03;;
4742;SDS011;24293;48.154;7.748;2023-06-04T00:51:38;9.00;;;5.87;;
4742;SDS011;24293;48.154;7.748;2023-06-04T00:54:05;11.60;;;6.40;;
4742;SDS011;24293;48.154;7.748;2023-06-04T00:56:33;9.87;;;5.87;;
4742;SDS011;24293;48.154;7.748;2023-06-04T00:59:00;13.43;;;5.83;;
4742;SDS011;24293;48.154;7.748;2023-06-04T01:01:29;10.30;;;6.20;;
4742;SDS011;24293;48.154;7.748;2023-06-04T01:03:57;13.70;;;6.70;;
4742;SDS011;24293;48.154;7.748;2023-06-04T01:06:28;10.13;;;5.33;;
4742;SDS011;24293;48.154;7.748;2023-06-04T01:08:56;15.70;;;6.90;;
4742;SDS011;24293;48.154;7.748;2023-06-04T01:11:32;9.33;;;5.77;;
4742;SDS011;24293;48.154;7.748;2023-06-04T01:13:59;10.93;;;6.93;;
4742;SDS011;24293;48.154;7.748;2023-06-04T01:16:26;13.17;;;7.10;;
4742;SDS011;24293;48.154;7.748;2023-06-04T01:18:54;11.87;;;6.40;;
4742;SDS011;24293;48.154;7.748;2023-06-04T01:21:23;9.13;;;6.40;;
4742;SDS011;24293;48.154;7.748;2023-06-04T01:23:52;12.67;;;6.07;;
4742;SDS011;24293;48.154;7.748;2023-06-04T01:26:24;10.97;;;7.17;;
4742;SDS011;24293;48.154;7.748;2023-06-04T01:28:51;10.87;;;5.80;;
4742;SDS011;24293;48.154;7.748;2023-06-04T01:31:18;16.67;;;6.50;;
4742;SDS011;24293;48.154;7.748;2023-06-04T01:33:48;16.40;;;6.50;;
4742;SDS011;24293;48.154;7.748;2023-06-04T01:36:14;10.60;;;6.23;;
4742;SDS011;24293;48.154;7.748;2023-06-04T01:38:40;11.00;;;6.67;;
4742;SDS011;24293;48.154;7.748;2023-06-04T01:41:07;12.33;;;6.50;;
4742;SDS011;24293;48.154;7.748;2023-06-04T01:43:35;11.60;;;6.33;;
4742;SDS011;24293;48.154;7.748;2023-06-04T01:46:02;10.90;;;6.27;;
4742;SDS011;24293;48.154;7.748;2023-06-04T01:48:28;12.57;;;5.77;;
4742;SDS011;24293;48.154;7.748;2023-06-04T01:50:57;13.33;;;7.53;;
4742;SDS011;24293;48.154;7.748;2023-06-04T01:53:23;12.77;;;6.80;;
4742;SDS011;24293;48.154;7.748;2023-06-04T01:55:49;10.37;;;5.87;;
4742;SDS011;24293;48.154;7.748;2023-06-04T01:58:16;14.03;;;6.90;;
4742;SDS011;24293;48.154;7.748;2023-06-04T02:00:51;11.57;;;6.13;;
4742;SDS011;24293;48.154;7.748;2023-06-04T02:03:18;10.10;;;6.40;;
4742;SDS011;24293;48.154;7.748;2023-06-04T02:05:45;11.50;;;6.60;;
4742;SDS011;24293;48.154;7.748;2023-06-04T02:08:14;10.30;;;6.43;;
4742;SDS011;24293;48.154;7.748;2023-06-04T02:10:44;9.83;;;7.10;;
4742;SDS011;24293;48.154;7.748;2023-06-04T02:13:11;8.57;;;5.57;;
4742;SDS011;24293;48.154;7.748;2023-06-04T02:15:37;12.83;;;6.43;;
4742;SDS011;24293;48.154;7.748;2023-06-04T02:18:12;9.70;;;6.50;;
4742;SDS011;24293;48.154;7.748;2023-06-04T02:20:41;11.77;;;6.67;;
4742;SDS011;24293;48.154;7.748;2023-06-04T02:23:07;11.40;;;6.67;;
4742;SDS011;24293;48.154;7.748;2023-06-04T02:25:34;10.40;;;5.60;;
4742;SDS011;24293;48.154;7.748;2023-06-04T02:28:00;11.67;;;6.60;;
4742;SDS011;24293;48.154;7.748;2023-06-04T02:30:26;10.43;;;6.20;;
4742;SDS011;24293;48.154;7.748;2023-06-04T02:32:53;11.50;;;7.13;;
4742;SDS011;24293;48.154;7.748;2023-06-04T02:35:21;9.43;;;6.23;;
4742;SDS011;24293;48.154;7.748;2023-06-04T02:37:49;11.20;;;6.17;;
4742;SDS011;24293;48.154;7.748;2023-06-04T02:40:16;13.03;;;7.13;;
4742;SDS011;24293;48.154;7.748;2023-06-04T02:42:42;25.23;;;14.87;;
4742;SDS011;24293;48.154;7.748;2023-06-04T02:45:09;16.20;;;10.27;;
4742;SDS011;24293;48.154;7.748;2023-06-04T02:47:36;11.90;;;7.87;;
4742;SDS011;24293;48.154;7.748;2023-06-04T02:50:03;9.97;;;6.20;;
4742;SDS011;24293;48.154;7.748;2023-06-04T02:52:31;13.80;;;6.87;;
4742;SDS011;24293;48.154;7.748;2023-06-04T02:54:58;10.50;;;6.43;;
4742;SDS011;24293;48.154;7.748;2023-06-04T02:57:24;11.33;;;6.60;;
4742;SDS011;24293;48.154;7.748;2023-06-04T02:59:51;12.53;;;6.47;;
4742;SDS011;24293;48.154;7.748;2023-06-04T03:02:20;11.70;;;6.70;;
4742;SDS011;24293;48.154;7.748;2023-06-04T03:04:46;10.03;;;6.73;;
4742;SDS011;24293;48.154;7.748;2023-06-04T03:07:16;10.33;;;7.17;;
4742;SDS011;24293;48.154;7.748;2023-06-04T03:09:47;11.30;;;7.17;;
4742;SDS011;24293;48.154;7.748;2023-06-04T03:12:13;10.07;;;6.77;;
4742;SDS011;24293;48.154;7.748;2023-06-04T03:14:40;11.50;;;6.90;;
4742;SDS011;24293;48.154;7.748;2023-06-04T03:17:06;13.37;;;7.87;;
4742;SDS011;24293;48.154;7.748;2023-06-04T03:19:35;10.00;;;6.77;;
4742;SDS011;24293;48.154;7.748;2023-06-04T03:22:02;10.83;;;7.10;;
4742;SDS011;24293;48.154;7.748;2023-06-04T03:24:30;10.27;;;7.37;;
4742;SDS011;24293;48.154;7.748;2023-06-04T03:26:58;14.23;;;7.80;;
4742;SDS011;24293;48.154;7.748;2023-06-04T03:29:25;13.23;;;6.70;;
4742;SDS011;24293;48.154;7.748;2023-06-04T03:31:52;12.93;;;7.23;;
4742;SDS011;24293;48.154;7.748;2023-06-04T03:34:18;9.43;;;6.87;;
4742;SDS011;24293;48.154;7.748;2023-06-04T03:36:45;9.53;;;6.03;;
4742;SDS011;24293;48.154;7.748;2023-06-04T03:39:12;11.50;;;6.50;;
4742;SDS011;24293;48.154;7.748;2023-06-04T03:41:38;12.17;;;6.97;;
4742;SDS011;24293;48.154;7.748;2023-06-04T03:44:06;8.27;;;6.13;;
4742;SDS011;24293;48.154;7.748;2023-06-04T03:46:32;13.47;;;6.97;;
4742;SDS011;24293;48.154;7.748;2023-06-04T03:48:59;11.40;;;6.27;;
4742;SDS011;24293;48.154;7.748;2023-06-04T03:51:25;13.20;;;7.00;;
4742;SDS011;24293;48.154;7.748;2023-06-04T03:53:52;11.10;;;6.53;;
4742;SDS011;24293;48.154;7.748;2023-06-04T03:56:18;13.10;;;6.53;;
4742;SDS011;24293;48.154;7.748;2023-06-04T03:58:44;8.70;;;6.30;;
4742;SDS011;24293;48.154;7.748;2023-06-04T04:01:12;11.83;;;6.07;;
4742;SDS011;24293;48.154;7.748;2023-06-04T04:03:39;10.30;;;5.67;;
4742;SDS011;24293;48.154;7.748;2023-06-04T04:06:05;8.97;;;6.07;;
4742;SDS011;24293;48.154;7.748;2023-06-04T04:08:32;14.67;;;6.23;;
4742;SDS011;24293;48.154;7.748;2023-06-04T04:10:59;9.30;;;5.33;;
4742;SDS011;24293;48.154;7.748;2023-06-04T04:13:26;13.00;;;5.77;;
4742;SDS011;24293;48.154;7.748;2023-06-04T04:15:52;9.53;;;4.93;;
4742;SDS011;24293;48.154;7.748;2023-06-04T04:18:21;9.97;;;5.77;;
4742;SDS011;24293;48.154;7.748;2023-06-04T04:20:47;10.00;;;5.70;;
4742;SDS011;24293;48.154;7.748;2023-06-04T04:23:14;13.80;;;5.43;;
4742;SDS011;24293;48.154;7.748;2023-06-04T04:25:42;7.17;;;4.57;;
4742;SDS011;24293;48.154;7.748;2023-06-04T04:28:09;11.07;;;5.30;;
4742;SDS011;24293;48.154;7.748;2023-06-04T04:30:35;8.83;;;4.40;;
4742;SDS011;24293;48.154;7.748;2023-06-04T04:33:02;19.83;;;5.17;;
4742;SDS011;24293;48.154;7.748;2023-06-04T04:35:31;10.93;;;4.43;;
4742;SDS011;24293;48.154;7.748;2023-06-04T04:37:59;14.30;;;5.30;;
4742;SDS011;24293;48.154;7.748;2023-06-04T04:40:28;6.20;;;4.20;;
4742;SDS011;24293;48.154;7.748;2023-06-04T04:42:54;12.67;;;4.63;;
4742;SDS011;24293;48.154;7.748;2023-06-04T04:45:21;9.63;;;4.60;;
4742;SDS011;24293;48.154;7.748;2023-06-04T04:47:47;6.73;;;3.80;;
4742;SDS011;24293;48.154;7.748;2023-06-04T04:50:15;7.73;;;3.97;;
4742;SDS011;24293;48.154;7.748;2023-06-04T04:52:43;6.27;;;3.43;;
4742;SDS011;24293;48.154;7.748;2023-06-04T04:55:10;9.40;;;4.13;;
4742;SDS011;24293;48.154;7.748;2023-06-04T04:57:37;7.50;;;4.60;;
4742;SDS011;24293;48.154;7.748;2023-06-04T05:00:04;8.70;;;4.00;;
4742;SDS011;24293;48.154;7.748;2023-06-04T05:02:32;8.90;;;3.57;;
4742;SDS011;24293;48.154;7.748;2023-06-04T05:04:58;7.30;;;4.13;;
4742;SDS011;24293;48.154;7.748;2023-06-04T05:07:25;6.60;;;4.00;;
4742;SDS011;24293;48.154;7.748;2023-06-04T05:09:52;9.07;;;3.97;;
4742;SDS011;24293;48.154;7.748;2023-06-04T05:12:19;11.10;;;4.00;;
4742;SDS011;24293;48.154;7.748;2023-06-04T05:14:46;6.43;;;3.83;;
4742;SDS011;24293;48.154;7.748;2023-06-04T05:17:12;9.33;;;4.30;;
4742;SDS011;24293;48.154;7.748;2023-06-04T05:19:41;7.00;;;5.30;;
4742;SDS011;24293;48.154;7.748;2023-06-04T05:22:07;8.13;;;4.03;;
4742;SDS011;24293;48.154;7.748;2023-06-04T05:24:34;9.57;;;4.30;;
4742;SDS011;24293;48.154;7.748;2023-06-04T05:27:02;8.27;;;3.70;;
4742;SDS011;24293;48.154;7.748;2023-06-04T05:29:28;13.30;;;4.87;;
4742;SDS011;24293;48.154;7.748;2023-06-04T05:31:55;8.10;;;3.77;;
4742;SDS011;24293;48.154;7.748;2023-06-04T05:34:25;10.77;;;3.50;;
4742;SDS011;24293;48.154;7.748;2023-06-04T05:36:51;7.17;;;3.87;;
4742;SDS011;24293;48.154;7.748;2023-06-04T05:39:18;11.83;;;4.43;;
4742;SDS011;24293;48.154;7.748;2023-06-04T05:41:48;6.20;;;3.70;;
4742;SDS011;24293;48.154;7.748;2023-06-04T05:44:16;9.53;;;4.20;;
4742;SDS011;24293;48.154;7.748;2023-06-04T05:46:43;6.70;;;3.80;;
4742;SDS011;24293;48.154;7.748;2023-06-04T05:49:09;8.23;;;3.33;;
4742;SDS011;24293;48.154;7.748;2023-06-04T05:51:36;11.50;;;4.10;;
4742;SDS011;24293;48.154;7.748;2023-06-04T05:54:02;8.30;;;3.77;;
4742;SDS011;24293;48.154;7.748;2023-06-04T05:56:29;4.53;;;3.17;;
4742;SDS011;24293;48.154;7.748;2023-06-04T05:58:56;11.33;;;4.00;;
4742;SDS011;24293;48.154;7.748;2023-06-04T06:01:24;12.10;;;3.80;;
4742;SDS011;24293;48.154;7.748;2023-06-04T06:03:50;7.30;;;3.50;;
4742;SDS011;24293;48.154;7.748;2023-06-04T06:06:17;8.93;;;3.27;;
4742;SDS011;24293;48.154;7.748;2023-06-04T06:08:45;8.37;;;4.23;;
4742;SDS011;24293;48.154;7.748;2023-06-04T06:11:11;6.83;;;3.93;;
4742;SDS011;24293;48.154;7.748;2023-06-04T06:13:38;7.73;;;3.90;;
4742;SDS011;24293;48.154;7.748;2023-06-04T06:16:05;7.70;;;4.13;;
4742;SDS011;24293;48.154;7.748;2023-06-04T06:18:33;9.07;;;4.07;;
4742;SDS011;24293;48.154;7.748;2023-06-04T06:20:59;6.00;;;3.53;;
4742;SDS011;24293;48.154;7.748;2023-06-04T06:23:26;6.97;;;4.27;;
4742;SDS011;24293;48.154;7.748;2023-06-04T06:25:52;8.70;;;4.10;;
4742;SDS011;24293;48.154;7.748;2023-06-04T06:28:19;10.83;;;4.93;;
4742;SDS011;24293;48.154;7.748;2023-06-04T06:30:45;9.60;;;4.50;;
4742;SDS011;24293;48.154;7.748;2023-06-04T06:33:12;6.87;;;3.70;;
4742;SDS011;24293;48.154;7.748;2023-06-04T06:35:41;6.27;;;3.77;;
4742;SDS011;24293;48.154;7.748;2023-06-04T06:38:07;7.17;;;4.30;;
4742;SDS011;24293;48.154;7.748;2023-06-04T06:40:33;8.47;;;4.37;;
4742;SDS011;24293;48.154;7.748;2023-06-04T06:43:00;8.13;;;4.20;;
4742;SDS011;24293;48.154;7.748;2023-06-04T06:45:26;7.13;;;4.30;;
4742;SDS011;24293;48.154;7.748;2023-06-04T06:47:53;7.40;;;3.73;;
4742;SDS011;24293;48.154;7.748;2023-06-04T06:50:19;12.40;;;4.40;;
4742;SDS011;24293;48.154;7.748;2023-06-04T06:52:47;9.57;;;4.70;;
4742;SDS011;24293;48.154;7.748;2023-06-04T06:55:22;11.90;;;4.50;;
4742;SDS011;24293;48.154;7.748;2023-06-04T06:57:49;7.40;;;4.30;;
4742;SDS011;24293;48.154;7.748;2023-06-04T07:00:15;7.87;;;5.07;;
4742;SDS011;24293;48.154;7.748;2023-06-04T07:02:42;9.73;;;5.27;;
4742;SDS011;24293;48.154;7.748;2023-06-04T07:05:08;7.23;;;4.60;;
4742;SDS011;24293;48.154;7.748;2023-06-04T07:07:35;12.30;;;4.47;;
4742;SDS011;24293;48.154;7.748;2023-06-04T07:10:03;8.20;;;4.40;;
4742;SDS011;24293;48.154;7.748;2023-06-04T07:12:30;7.73;;;3.17;;
4742;SDS011;24293;48.154;7.748;2023-06-04T07:14:57;6.60;;;3.37;;
4742;SDS011;24293;48.154;7.748;2023-06-04T07:17:23;6.07;;;3.47;;
4742;SDS011;24293;48.154;7.748;2023-06-04T07:19:49;5.10;;;3.03;;
4742;SDS011;24293;48.154;7.748;2023-06-04T07:22:16;11.93;;;2.70;;
4742;SDS011;24293;48.154;7.748;2023-06-04T07:24:42;5.30;;;3.00;;
4742;SDS011;24293;48.154;7.748;2023-06-04T07:27:11;6.43;;;3.00;;
4742;SDS011;24293;48.154;7.748;2023-06-04T07:29:38;10.93;;;6.67;;
4742;SDS011;24293;48.154;7.748;2023-06-04T07:32:04;8.43;;;2.80;;
4742;SDS011;24293;48.154;7.748;2023-06-04T07:34:31;5.70;;;3.43;;
4742;SDS011;24293;48.154;7.748;2023-06-04T07:36:57;7.47;;;3.40;;
4742;SDS011;24293;48.154;7.748;2023-06-04T07:39:24;6.60;;;3.17;;
4742;SDS011;24293;48.154;7.748;2023-06-04T07:41:51;5.73;;;2.80;;
4742;SDS011;24293;48.154;7.748;2023-06-04T07:44:20;8.70;;;3.53;;
4742;SDS011;24293;48.154;7.748;2023-06-04T07:46:46;9.43;;;2.97;;
4742;SDS011;24293;48.154;7.748;2023-06-04T07:49:13;6.10;;;2.90;;
4742;SDS011;24293;48.154;7.748;2023-06-04T07:51:40;7.37;;;3.40;;
4742;SDS011;24293;48.154;7.748;2023-06-04T07:54:07;7.57;;;3.90;;
4742;SDS011;24293;48.154;7.748;2023-06-04T07:56:33;10.70;;;3.23;;
4742;SDS011;24293;48.154;7.748;2023-06-04T07:59:00;9.40;;;3.10;;
4742;SDS011;24293;48.154;7.748;2023-06-04T08:01:28;5.73;;;2.97;;
4742;SDS011;24293;48.154;7.748;2023-06-04T08:03:54;6.43;;;3.40;;
4742;SDS011;24293;48.154;7.748;2023-06-04T08:06:21;4.50;;;2.83;;
4742;SDS011;24293;48.154;7.748;2023-06-04T08:08:49;6.00;;;2.67;;
4742;SDS011;24293;48.154;7.748;2023-06-04T08:11:15;7.37;;;2.83;;
4742;SDS011;24293;48.154;7.748;2023-06-04T08:13:42;7.77;;;3.30;;
4742;SDS011;24293;48.154;7.748;2023-06-04T08:16:09;11.83;;;4.63;;
4742;SDS011;24293;48.154;7.748;2023-06-04T08:18:38;7.57;;;3.20;;
4742;SDS011;24293;48.154;7.748;2023-06-04T08:21:05;7.73;;;3.50;;
4742;SDS011;24293;48.154;7.748;2023-06-04T08:23:32;14.03;;;3.90;;
4742;SDS011;24293;48.154;7.748;2023-06-04T08:25:58;7.03;;;3.70;;
4742;SDS011;24293;48.154;7.748;2023-06-04T08:28:25;8.13;;;4.30;;
4742;SDS011;24293;48.154;7.748;2023-06-04T08:30:51;7.80;;;3.97;;
4742;SDS011;24293;48.154;7.748;2023-06-04T08:33:18;8.23;;;4.30;;
4742;SDS011;24293;48.154;7.748;2023-06-04T08:35:46;8.23;;;4.70;;
4742;SDS011;24293;48.154;7.748;2023-06-04T08:38:12;11.03;;;5.90;;
4742;SDS011;24293;48.154;7.748;2023-06-04T08:40:38;8.00;;;4.10;;
4742;SDS011;24293;48.154;7.748;2023-06-04T08:43:05;8.40;;;4.40;;
4742;SDS011;24293;48.154;7.748;2023-06-04T08:45:32;14.50;;;4.77;;
4742;SDS011;24293;48.154;7.748;2023-06-04T08:47:59;11.07;;;4.83;;
4742;SDS011;24293;48.154;7.748;2023-06-04T08:50:26;10.47;;;5.00;;
4742;SDS011;24293;48.154;7.748;2023-06-04T08:52:54;12.90;;;5.53;;
4742;SDS011;24293;48.154;7.748;2023-06-04T08:55:21;9.10;;;4.90;;
4742;SDS011;24293;48.154;7.748;2023-06-04T08:57:49;10.83;;;5.13;;
4742;SDS011;24293;48.154;7.748;2023-06-04T09:00:15;12.47;;;5.03;;
4742;SDS011;24293;48.154;7.748;2023-06-04T09:02:43;9.17;;;4.93;;
4742;SDS011;24293;48.154;7.748;2023-06-04T09:05:11;8.27;;;4.43;;
4742;SDS011;24293;48.154;7.748;2023-06-04T09:07:44;13.43;;;6.90;;
4742;SDS011;24293;48.154;7.748;2023-06-04T09:10:13;11.07;;;4.90;;
4742;SDS011;24293;48.154;7.748;2023-06-04T09:12:42;7.27;;;4.30;;
4742;SDS011;24293;48.154;7.748;2023-06-04T09:15:08;7.93;;;4.50;;
4742;SDS011;24293;48.154;7.748;2023-06-04T09:17:35;9.20;;;4.70;;
4742;SDS011;24293;48.154;7.748;2023-06-04T09:20:02;8.43;;;5.27;;
4742;SDS011;24293;48.154;7.748;2023-06-04T09:22:33;12.10;;;6.50;;
4742;SDS011;24293;48.154;7.748;2023-06-04T09:25:00;9.23;;;6.07;;
4742;SDS011;24293;48.154;7.748;2023-06-04T09:27:28;14.53;;;6.10;;
4742;SDS011;24293;48.154;7.748;2023-06-04T09:30:03;13.17;;;6.93;;
4742;SDS011;24293;48.154;7.748;2023-06-04T09:32:30;14.80;;;6.23;;
4742;SDS011;24293;48.154;7.748;2023-06-04T09:35:09;9.80;;;5.90;;
4742;SDS011;24293;48.154;7.748;2023-06-04T09:37:35;11.53;;;6.83;;
4742;SDS011;24293;48.154;7.748;2023-06-04T09:40:02;15.00;;;6.93;;
4742;SDS011;24293;48.154;7.748;2023-06-04T09:42:31;14.87;;;7.17;;
4742;SDS011;24293;48.154;7.748;2023-06-04T09:45:07;9.77;;;6.73;;
4742;SDS011;24293;48.154;7.748;2023-06-04T09:47:38;10.40;;;6.03;;
4742;SDS011;24293;48.154;7.748;2023-06-04T09:50:08;14.17;;;6.07;;
4742;SDS011;24293;48.154;7.748;2023-06-04T09:52:34;13.40;;;6.40;;
4742;SDS011;24293;48.154;7.748;2023-06-04T09:55:02;11.60;;;6.60;;
4742;SDS011;24293;48.154;7.748;2023-06-04T09:57:29;12.03;;;6.73;;
4742;SDS011;24293;48.154;7.748;2023-06-04T09:59:57;11.70;;;5.77;;
4742;SDS011;24293;48.154;7.748;2023-06-04T10:02:24;13.40;;;5.53;;
4742;SDS011;24293;48.154;7.748;2023-06-04T10:04:53;7.80;;;5.10;;
4742;SDS011;24293;48.154;7.748;2023-06-04T10:07:21;8.63;;;4.80;;
4742;SDS011;24293;48.154;7.748;2023-06-04T10:09:48;12.40;;;5.30;;
4742;SDS011;24293;48.154;7.748;2023-06-04T10:12:16;9.63;;;5.90;;
4742;SDS011;24293;48.154;7.748;2023-06-04T10:14:44;9.80;;;5.47;;
4742;SDS011;24293;48.154;7.748;2023-06-04T10:17:13;10.67;;;5.83;;
4742;SDS011;24293;48.154;7.748;2023-06-04T10:19:42;8.10;;;5.63;;
4742;SDS011;24293;48.154;7.748;2023-06-04T10:22:09;11.43;;;6.23;;
4742;SDS011;24293;48.154;7.748;2023-06-04T10:24:36;11.57;;;6.43;;
4742;SDS011;24293;48.154;7.748;2023-06-04T10:27:03;13.07;;;7.13;;
4742;SDS011;24293;48.154;7.748;2023-06-04T10:29:35;10.80;;;6.10;;
4742;SDS011;24293;48.154;7.748;2023-06-04T10:32:02;17.13;;;6.97;;
4742;SDS011;24293;48.154;7.748;2023-06-04T10:34:30;12.00;;;7.17;;
4742;SDS011;24293;48.154;7.748;2023-06-04T10:36:57;9.47;;;6.43;;
4742;SDS011;24293;48.154;7.748;2023-06-04T10:39:26;12.33;;;7.10;;
4742;SDS011;24293;48.154;7.748;2023-06-04T10:41:57;13.50;;;6.20;;
4742;SDS011;24293;48.154;7.748;2023-06-04T10:44:23;13.13;;;6.70;;
4742;SDS011;24293;48.154;7.748;2023-06-04T10:46:50;11.83;;;6.27;;
4742;SDS011;24293;48.154;7.748;2023-06-04T10:49:25;10.83;;;6.37;;
4742;SDS011;24293;48.154;7.748;2023-06-04T10:51:53;12.50;;;6.60;;
4742;SDS011;24293;48.154;7.748;2023-06-04T10:54:24;8.57;;;5.70;;
4742;SDS011;24293;48.154;7.748;2023-06-04T10:56:51;11.23;;;5.73;;
4742;SDS011;24293;48.154;7.748;2023-06-04T10:59:18;9.40;;;4.80;;
4742;SDS011;24293;48.154;7.748;2023-06-04T11:01:45;10.57;;;5.90;;
4742;SDS011;24293;48.154;7.748;2023-06-04T11:04:18;8.27;;;5.83;;
4742;SDS011;24293;48.154;7.748;2023-06-04T11:06:44;8.80;;;5.70;;
4742;SDS011;24293;48.154;7.748;2023-06-04T11:09:12;10.60;;;5.23;;
4742;SDS011;24293;48.154;7.748;2023-06-04T11:11:41;12.90;;;5.80;;
4742;SDS011;24293;48.154;7.748;2023-06-04T11:14:08;9.80;;;5.30;;
4742;SDS011;24293;48.154;7.748;2023-06-04T11:16:36;10.83;;;5.60;;
4742;SDS011;24293;48.154;7.748;2023-06-04T11:19:03;7.97;;;5.10;;
4742;SDS011;24293;48.154;7.748;2023-06-04T11:21:30;9.43;;;5.83;;
4742;SDS011;24293;48.154;7.748;2023-06-04T11:23:57;14.63;;;5.83;;
4742;SDS011;24293;48.154;7.748;2023-06-04T11:26:30;8.23;;;4.77;;
4742;SDS011;24293;48.154;7.748;2023-06-04T11:28:57;10.43;;;5.00;;
4742;SDS011;24293;48.154;7.748;2023-06-04T11:31:23;10.53;;;4.90;;
4742;SDS011;24293;48.154;7.748;2023-06-04T11:33:50;9.97;;;5.27;;
4742;SDS011;24293;48.154;7.748;2023-06-04T11:36:23;9.53;;;4.70;;
4742;SDS011;24293;48.154;7.748;2023-06-04T11:38:59;9.13;;;4.73;;
4742;SDS011;24293;48.154;7.748;2023-06-04T11:41:26;7.20;;;4.80;;
4742;SDS011;24293;48.154;7.748;2023-06-04T11:43:54;8.30;;;5.20;;
4742;SDS011;24293;48.154;7.748;2023-06-04T11:46:21;14.10;;;5.50;;
4742;SDS011;24293;48.154;7.748;2023-06-04T11:48:50;7.00;;;4.87;;
4742;SDS011;24293;48.154;7.748;2023-06-04T11:51:16;8.13;;;4.90;;
4742;SDS011;24293;48.154;7.748;2023-06-04T11:53:43;8.77;;;4.87;;
4742;SDS011;24293;48.154;7.748;2023-06-04T11:56:09;7.00;;;4.63;;
4742;SDS011;24293;48.154;7.748;2023-06-04T11:58:36;9.30;;;5.37;;
4742;SDS011;24293;48.154;7.748;2023-06-04T12:01:05;8.07;;;5.00;;
4742;SDS011;24293;48.154;7.748;2023-06-04T12:03:33;13.67;;;5.20;;
4742;SDS011;24293;48.154;7.748;2023-06-04T12:06:08;7.30;;;4.70;;
4742;SDS011;24293;48.154;7.748;2023-06-04T12:08:43;9.23;;;5.60;;
4742;SDS011;24293;48.154;7.748;2023-06-04T12:11:19;7.33;;;4.77;;
4742;SDS011;24293;48.154;7.748;2023-06-04T12:13:46;7.30;;;4.90;;
4742;SDS011;24293;48.154;7.748;2023-06-04T12:16:15;7.17;;;4.37;;
4742;SDS011;24293;48.154;7.748;2023-06-04T12:18:42;9.13;;;4.50;;
4742;SDS011;24293;48.154;7.748;2023-06-04T12:21:15;7.53;;;4.40;;
4742;SDS011;24293;48.154;7.748;2023-06-04T12:23:42;6.33;;;4.60;;
4742;SDS011;24293;48.154;7.748;2023-06-04T12:26:19;7.50;;;4.17;;
4742;SDS011;24293;48.154;7.748;2023-06-04T12:28:57;10.30;;;4.77;;
4742;SDS011;24293;48.154;7.748;2023-06-04T12:31:25;8.07;;;4.77;;
4742;SDS011;24293;48.154;7.748;2023-06-04T12:33:57;9.90;;;4.20;;
4742;SDS011;24293;48.154;7.748;2023-06-04T12:36:23;7.33;;;4.70;;
4742;SDS011;24293;48.154;7.748;2023-06-04T12:38:50;7.70;;;4.33;;
4742;SDS011;24293;48.154;7.748;2023-06-04T12:41:16;11.30;;;4.20;;
4742;SDS011;24293;48.154;7.748;2023-06-04T12:43:43;9.67;;;5.00;;
4742;SDS011;24293;48.154;7.748;2023-06-04T12:46:09;6.47;;;4.60;;
4742;SDS011;24293;48.154;7.748;2023-06-04T12:48:37;7.40;;;4.70;;
4742;SDS011;24293;48.154;7.748;2023-06-04T12:51:04;11.93;;;4.47;;
4742;SDS011;24293;48.154;7.748;2023-06-04T12:53:30;6.83;;;4.63;;
4742;SDS011;24293;48.154;7.748;2023-06-04T12:55:57;7.57;;;4.43;;
4742;SDS011;24293;48.154;7.748;2023-06-04T12:58:24;9.23;;;3.80;;
4742;SDS011;24293;48.154;7.748;2023-06-04T13:00:50;12.53;;;4.03;;
4742;SDS011;24293;48.154;7.748;2023-06-04T13:03:17;8.87;;;4.57;;
4742;SDS011;24293;48.154;7.748;2023-06-04T13:05:45;8.47;;;4.43;;
4742;SDS011;24293;48.154;7.748;2023-06-04T13:08:11;8.87;;;4.37;;
4742;SDS011;24293;48.154;7.748;2023-06-04T13:10:37;7.63;;;4.07;;
4742;SDS011;24293;48.154;7.748;2023-06-04T13:13:04;8.63;;;3.60;;
4742;SDS011;24293;48.154;7.748;2023-06-04T13:15:30;7.80;;;4.70;;
4742;SDS011;24293;48.154;7.748;2023-06-04T13:17:57;7.90;;;4.10;;
4742;SDS011;24293;48.154;7.748;2023-06-04T13:20:24;10.70;;;4.13;;
4742;SDS011;24293;48.154;7.748;2023-06-04T13:22:52;7.83;;;3.50;;
4742;SDS011;24293;48.154;7.748;2023-06-04T13:25:18;7.43;;;3.93;;
4742;SDS011;24293;48.154;7.748;2023-06-04T13:27:45;7.10;;;4.03;;
4742;SDS011;24293;48.154;7.748;2023-06-04T13:30:12;7.90;;;4.00;;
4742;SDS011;24293;48.154;7.748;2023-06-04T13:32:38;7.10;;;4.60;;
4742;SDS011;24293;48.154;7.748;2023-06-04T13:35:05;10.80;;;4.37;;
4742;SDS011;24293;48.154;7.748;2023-06-04T13:37:32;10.00;;;4.07;;
4742;SDS011;24293;48.154;7.748;2023-06-04T13:40:00;7.83;;;4.13;;
4742;SDS011;24293;48.154;7.748;2023-06-04T13:42:26;6.77;;;4.17;;
4742;SDS011;24293;48.154;7.748;2023-06-04T13:44:53;9.83;;;4.20;;
4742;SDS011;24293;48.154;7.748;2023-06-04T13:47:19;8.93;;;4.27;;
4742;SDS011;24293;48.154;7.748;2023-06-04T13:49:47;6.90;;;4.20;;
4742;SDS011;24293;48.154;7.748;2023-06-04T13:52:13;6.53;;;4.07;;
4742;SDS011;24293;48.154;7.748;2023-06-04T13:54:39;6.30;;;4.03;;
4742;SDS011;24293;48.154;7.748;2023-06-04T13:57:07;12.10;;;4.27;;
4742;SDS011;24293;48.154;7.748;2023-06-04T13:59:36;8.10;;;3.87;;
4742;SDS011;24293;48.154;7.748;2023-06-04T14:02:03;8.90;;;4.07;;
4742;SDS011;24293;48.154;7.748;2023-06-04T14:04:29;8.40;;;3.90;;
4742;SDS011;24293;48.154;7.748;2023-06-04T14:06:56;9.63;;;4.13;;
4742;SDS011;24293;48.154;7.748;2023-06-04T14:09:22;6.10;;;3.90;;
4742;SDS011;24293;48.154;7.748;2023-06-04T14:11:49;15.00;;;4.33;;
4742;SDS011;24293;48.154;7.748;2023-06-04T14:14:18;15.73;;;4.10;;
4742;SDS011;24293;48.154;7.748;2023-06-04T14:16:44;9.50;;;3.87;;
4742;SDS011;24293;48.154;7.748;2023-06-04T14:19:11;8.57;;;4.20;;
4742;SDS011;24293;48.154;7.748;2023-06-04T14:21:37;6.07;;;4.10;;
4742;SDS011;24293;48.154;7.748;2023-06-04T14:24:04;7.17;;;4.77;;
4742;SDS011;24293;48.154;7.748;2023-06-04T14:26:30;6.63;;;3.87;;
4742;SDS011;24293;48.154;7.748;2023-06-04T14:28:58;7.47;;;3.97;;
4742;SDS011;24293;48.154;7.748;2023-06-04T14:31:26;6.90;;;3.73;;
4742;SDS011;24293;48.154;7.748;2023-06-04T14:33:53;6.77;;;4.17;;
4742;SDS011;24293;48.154;7.748;2023-06-04T14:36:20;6.30;;;4.60;;
4742;SDS011;24293;48.154;7.748;2023-06-04T14:38:46;8.37;;;4.40;;
4742;SDS011;24293;48.154;7.748;2023-06-04T14:41:14;6.13;;;4.30;;
4742;SDS011;24293;48.154;7.748;2023-06-04T14:43:40;9.40;;;4.30;;
4742;SDS011;24293;48.154;7.748;2023-06-04T14:46:07;7.93;;;3.97;;
4742;SDS011;24293;48.154;7.748;2023-06-04T14:48:34;9.63;;;4.50;;
4742;SDS011;24293;48.154;7.748;2023-06-04T14:51:01;8.87;;;4.07;;
4742;SDS011;24293;48.154;7.748;2023-06-04T14:53:27;8.37;;;4.80;;
4742;SDS011;24293;48.154;7.748;2023-06-04T14:55:54;6.00;;;3.77;;